sensor_id;sensor_type;location;lat;lon;timestamp;P1;durP1;ratioP1;P2;durP2;ratioP2
19347;SDS011;9810;52.480;9.806;2024-01-16T00:01:19;2.57;;;1.00;;
19347;SDS011;9810;52.480;9.806;2024-01-16T00:03:48;2.40;;;1.00;;
19347;SDS011;9810;52.480;9.806;2024-01-16T00:06:14;1.83;;;1.10;;
19347;SDS011;9810;52.480;9.806;2024-01-16T00:08:41;2.10;;;0.83;;
19347;SDS011;9810;52.480;9.806;2024-01-16T00:11:09;2.23;;;0.97;;
19347;SDS011;9810;52.480;9.806;2024-01-16T00:13:36;6.60;;;1.00;;
19347;SDS011;9810;52.480;9.806;2024-01-16T00:16:03;4.10;;;1.10;;
19347;SDS011;9810;52.480;9.806;2024-01-16T00:18:30;2.17;;;0.83;;
19347;SDS011;9810;52.480;9.806;2024-01-16T00:20:59;5.73;;;1.40;;
19347;SDS011;9810;52.480;9.806;2024-01-16T00:24:03;2.10;;;0.93;;
19347;SDS011;9810;52.480;9.806;2024-01-16T00:26:30;5.93;;;1.20;;
19347;SDS011;9810;52.480;9.806;2024-01-16T00:28:57;3.63;;;1.30;;
19347;SDS011;9810;52.480;9.806;2024-01-16T00:31:24;1.87;;;1.00;;
19347;SDS011;9810;52.480;9.806;2024-01-16T00:33:52;1.57;;;1.30;;
19347;SDS011;9810;52.480;9.806;2024-01-16T00:36:21;2.27;;;1.10;;
19347;SDS011;9810;52.480;9.806;2024-01-16T00:38:47;1.07;;;0.90;;
19347;SDS011;9810;52.480;9.806;2024-01-16T00:41:14;2.10;;;1.10;;
19347;SDS011;9810;52.480;9.806;2024-01-16T00:43:42;1.07;;;0.93;;
19347;SDS011;9810;52.480;9.806;2024-01-16T00:46:09;3.47;;;1.00;;
19347;SDS011;9810;52.480;9.806;2024-01-16T00:48:36;3.30;;;1.37;;
19347;SDS011;9810;52.480;9.806;2024-01-16T00:51:03;1.33;;;1.00;;
19347;SDS011;9810;52.480;9.806;2024-01-16T00:53:32;1.40;;;0.80;;
19347;SDS011;9810;52.480;9.806;2024-01-16T00:55:59;3.60;;;0.97;;
19347;SDS011;9810;52.480;9.806;2024-01-16T00:58:44;0.90;;;0.90;;
19347;SDS011;9810;52.480;9.806;2024-01-16T01:01:20;4.30;;;0.80;;
19347;SDS011;9810;52.480;9.806;2024-01-16T01:03:47;2.63;;;1.17;;
19347;SDS011;9810;52.480;9.806;2024-01-16T01:06:14;0.90;;;0.90;;
19347;SDS011;9810;52.480;9.806;2024-01-16T01:08:42;1.53;;;1.10;;
19347;SDS011;9810;52.480;9.806;2024-01-16T01:11:09;2.07;;;0.93;;
19347;SDS011;9810;52.480;9.806;2024-01-16T01:13:37;5.00;;;1.53;;
19347;SDS011;9810;52.480;9.806;2024-01-16T01:16:04;3.60;;;1.17;;
19347;SDS011;9810;52.480;9.806;2024-01-16T01:18:31;1.40;;;0.60;;
19347;SDS011;9810;52.480;9.806;2024-01-16T01:20:58;0.53;;;0.47;;
19347;SDS011;9810;52.480;9.806;2024-01-16T01:23:25;0.80;;;0.80;;
19347;SDS011;9810;52.480;9.806;2024-01-16T01:25:54;1.67;;;0.57;;
19347;SDS011;9810;52.480;9.806;2024-01-16T01:28:21;5.03;;;1.30;;
19347;SDS011;9810;52.480;9.806;2024-01-16T01:30:48;1.03;;;0.57;;
19347;SDS011;9810;52.480;9.806;2024-01-16T01:33:14;5.33;;;0.60;;
19347;SDS011;9810;52.480;9.806;2024-01-16T01:35:42;1.47;;;0.97;;
19347;SDS011;9810;52.480;9.806;2024-01-16T01:38:09;2.63;;;0.70;;
19347;SDS011;9810;52.480;9.806;2024-01-16T01:40:36;6.33;;;1.13;;
19347;SDS011;9810;52.480;9.806;2024-01-16T01:43:17;6.47;;;0.70;;
19347;SDS011;9810;52.480;9.806;2024-01-16T01:45:47;3.20;;;0.90;;
19347;SDS011;9810;52.480;9.806;2024-01-16T01:48:21;1.77;;;0.70;;
19347;SDS011;9810;52.480;9.806;2024-01-16T01:50:48;5.03;;;0.97;;
19347;SDS011;9810;52.480;9.806;2024-01-16T01:53:15;5.13;;;0.90;;
19347;SDS011;9810;52.480;9.806;2024-01-16T01:55:42;4.00;;;0.97;;
19347;SDS011;9810;52.480;9.806;2024-01-16T01:58:10;1.40;;;1.30;;
19347;SDS011;9810;52.480;9.806;2024-01-16T02:00:39;1.20;;;1.10;;
19347;SDS011;9810;52.480;9.806;2024-01-16T02:03:06;1.83;;;1.23;;
19347;SDS011;9810;52.480;9.806;2024-01-16T02:05:33;3.47;;;1.30;;
19347;SDS011;9810;52.480;9.806;2024-01-16T02:08:00;3.17;;;1.30;;
19347;SDS011;9810;52.480;9.806;2024-01-16T02:10:28;3.43;;;1.30;;
19347;SDS011;9810;52.480;9.806;2024-01-16T02:12:55;1.67;;;1.30;;
19347;SDS011;9810;52.480;9.806;2024-01-16T02:15:22;2.03;;;1.03;;
19347;SDS011;9810;52.480;9.806;2024-01-16T02:17:52;2.53;;;1.10;;
19347;SDS011;9810;52.480;9.806;2024-01-16T02:20:19;5.10;;;1.10;;
19347;SDS011;9810;52.480;9.806;2024-01-16T02:22:46;2.57;;;1.07;;
19347;SDS011;9810;52.480;9.806;2024-01-16T02:25:18;2.37;;;1.30;;
19347;SDS011;9810;52.480;9.806;2024-01-16T02:27:45;1.73;;;1.17;;
19347;SDS011;9810;52.480;9.806;2024-01-16T02:30:13;5.60;;;0.90;;
19347;SDS011;9810;52.480;9.806;2024-01-16T02:32:40;2.30;;;0.80;;
19347;SDS011;9810;52.480;9.806;2024-01-16T02:35:07;3.10;;;1.00;;
19347;SDS011;9810;52.480;9.806;2024-01-16T02:37:35;4.17;;;1.10;;
19347;SDS011;9810;52.480;9.806;2024-01-16T02:40:03;1.87;;;1.20;;
19347;SDS011;9810;52.480;9.806;2024-01-16T02:42:32;2.67;;;1.03;;
19347;SDS011;9810;52.480;9.806;2024-01-16T02:44:59;4.87;;;1.20;;
19347;SDS011;9810;52.480;9.806;2024-01-16T02:47:27;1.90;;;0.87;;
19347;SDS011;9810;52.480;9.806;2024-01-16T02:49:53;1.60;;;0.87;;
19347;SDS011;9810;52.480;9.806;2024-01-16T02:52:20;5.40;;;1.23;;
19347;SDS011;9810;52.480;9.806;2024-01-16T02:54:47;1.27;;;1.00;;
19347;SDS011;9810;52.480;9.806;2024-01-16T02:57:14;1.50;;;0.73;;
19347;SDS011;9810;52.480;9.806;2024-01-16T02:59:44;0.87;;;0.70;;
19347;SDS011;9810;52.480;9.806;2024-01-16T03:02:11;2.13;;;0.93;;
19347;SDS011;9810;52.480;9.806;2024-01-16T03:04:38;3.00;;;1.00;;
19347;SDS011;9810;52.480;9.806;2024-01-16T03:07:05;4.93;;;2.13;;
19347;SDS011;9810;52.480;9.806;2024-01-16T03:09:32;1.93;;;0.87;;
19347;SDS011;9810;52.480;9.806;2024-01-16T03:11:59;5.03;;;0.90;;
19347;SDS011;9810;52.480;9.806;2024-01-16T03:14:26;1.73;;;0.90;;
19347;SDS011;9810;52.480;9.806;2024-01-16T03:16:55;5.40;;;0.87;;
19347;SDS011;9810;52.480;9.806;2024-01-16T03:19:22;3.33;;;0.80;;
19347;SDS011;9810;52.480;9.806;2024-01-16T03:21:49;3.73;;;0.90;;
19347;SDS011;9810;52.480;9.806;2024-01-16T03:24:16;1.13;;;0.70;;
19347;SDS011;9810;52.480;9.806;2024-01-16T03:26:42;1.33;;;0.90;;
19347;SDS011;9810;52.480;9.806;2024-01-16T03:29:09;3.83;;;1.00;;
19347;SDS011;9810;52.480;9.806;2024-01-16T03:31:37;5.53;;;1.60;;
19347;SDS011;9810;52.480;9.806;2024-01-16T03:34:05;5.97;;;1.60;;
19347;SDS011;9810;52.480;9.806;2024-01-16T03:36:35;4.33;;;1.77;;
19347;SDS011;9810;52.480;9.806;2024-01-16T03:39:03;2.67;;;1.07;;
19347;SDS011;9810;52.480;9.806;2024-01-16T03:41:30;5.13;;;3.13;;
19347;SDS011;9810;52.480;9.806;2024-01-16T03:43:57;5.63;;;1.33;;
19347;SDS011;9810;52.480;9.806;2024-01-16T03:46:24;5.27;;;1.40;;
19347;SDS011;9810;52.480;9.806;2024-01-16T03:48:51;3.13;;;1.40;;
19347;SDS011;9810;52.480;9.806;2024-01-16T03:51:20;4.10;;;1.67;;
19347;SDS011;9810;52.480;9.806;2024-01-16T03:53:47;2.93;;;1.13;;
19347;SDS011;9810;52.480;9.806;2024-01-16T03:56:15;2.20;;;1.43;;
19347;SDS011;9810;52.480;9.806;2024-01-16T03:58:42;3.50;;;1.20;;
19347;SDS011;9810;52.480;9.806;2024-01-16T04:01:09;4.70;;;1.20;;
19347;SDS011;9810;52.480;9.806;2024-01-16T04:03:38;7.03;;;1.40;;
19347;SDS011;9810;52.480;9.806;2024-01-16T04:06:13;4.47;;;1.30;;
19347;SDS011;9810;52.480;9.806;2024-01-16T04:08:43;2.83;;;1.20;;
19347;SDS011;9810;52.480;9.806;2024-01-16T04:11:11;7.77;;;1.77;;
19347;SDS011;9810;52.480;9.806;2024-01-16T04:13:38;4.93;;;1.53;;
19347;SDS011;9810;52.480;9.806;2024-01-16T04:16:06;4.47;;;1.93;;
19347;SDS011;9810;52.480;9.806;2024-01-16T04:18:35;4.17;;;1.50;;
19347;SDS011;9810;52.480;9.806;2024-01-16T04:21:03;5.17;;;1.40;;
19347;SDS011;9810;52.480;9.806;2024-01-16T04:23:31;3.87;;;2.07;;
19347;SDS011;9810;52.480;9.806;2024-01-16T04:26:00;6.67;;;1.40;;
19347;SDS011;9810;52.480;9.806;2024-01-16T04:28:27;5.27;;;1.53;;
19347;SDS011;9810;52.480;9.806;2024-01-16T04:30:54;5.57;;;1.70;;
19347;SDS011;9810;52.480;9.806;2024-01-16T04:33:21;5.80;;;1.43;;
19347;SDS011;9810;52.480;9.806;2024-01-16T04:35:48;4.87;;;1.50;;
19347;SDS011;9810;52.480;9.806;2024-01-16T04:38:15;5.97;;;1.77;;
19347;SDS011;9810;52.480;9.806;2024-01-16T04:40:42;7.20;;;1.80;;
19347;SDS011;9810;52.480;9.806;2024-01-16T04:43:10;3.27;;;1.67;;
19347;SDS011;9810;52.480;9.806;2024-01-16T04:45:37;8.47;;;1.10;;
19347;SDS011;9810;52.480;9.806;2024-01-16T04:48:05;7.27;;;2.27;;
19347;SDS011;9810;52.480;9.806;2024-01-16T04:50:33;5.83;;;1.67;;
19347;SDS011;9810;52.480;9.806;2024-01-16T04:53:00;4.47;;;1.37;;
19347;SDS011;9810;52.480;9.806;2024-01-16T04:55:27;4.97;;;1.50;;
19347;SDS011;9810;52.480;9.806;2024-01-16T04:57:55;10.47;;;1.83;;
19347;SDS011;9810;52.480;9.806;2024-01-16T05:00:24;1.80;;;1.13;;
19347;SDS011;9810;52.480;9.806;2024-01-16T05:02:51;3.53;;;0.97;;
19347;SDS011;9810;52.480;9.806;2024-01-16T05:05:18;5.77;;;1.70;;
19347;SDS011;9810;52.480;9.806;2024-01-16T05:07:45;5.63;;;1.33;;
19347;SDS011;9810;52.480;9.806;2024-01-16T05:10:13;4.50;;;1.07;;
19347;SDS011;9810;52.480;9.806;2024-01-16T05:12:40;3.13;;;1.17;;
19347;SDS011;9810;52.480;9.806;2024-01-16T05:15:07;3.73;;;1.17;;
19347;SDS011;9810;52.480;9.806;2024-01-16T05:17:38;4.30;;;1.20;;
19347;SDS011;9810;52.480;9.806;2024-01-16T05:20:05;6.87;;;1.20;;
19347;SDS011;9810;52.480;9.806;2024-01-16T05:22:33;5.37;;;1.43;;
19347;SDS011;9810;52.480;9.806;2024-01-16T05:25:00;7.47;;;1.20;;
19347;SDS011;9810;52.480;9.806;2024-01-16T05:27:27;7.57;;;1.17;;
19347;SDS011;9810;52.480;9.806;2024-01-16T05:29:54;6.53;;;1.23;;
19347;SDS011;9810;52.480;9.806;2024-01-16T05:32:21;4.33;;;1.10;;
19347;SDS011;9810;52.480;9.806;2024-01-16T05:34:49;6.00;;;1.00;;
19347;SDS011;9810;52.480;9.806;2024-01-16T05:37:16;7.43;;;1.97;;
19347;SDS011;9810;52.480;9.806;2024-01-16T05:39:43;5.30;;;1.37;;
19347;SDS011;9810;52.480;9.806;2024-01-16T05:42:11;3.13;;;0.97;;
19347;SDS011;9810;52.480;9.806;2024-01-16T05:44:38;4.17;;;1.10;;
19347;SDS011;9810;52.480;9.806;2024-01-16T05:47:05;2.77;;;1.47;;
19347;SDS011;9810;52.480;9.806;2024-01-16T05:49:32;5.20;;;1.33;;
19347;SDS011;9810;52.480;9.806;2024-01-16T05:52:00;5.17;;;1.70;;
19347;SDS011;9810;52.480;9.806;2024-01-16T05:54:27;5.23;;;1.30;;
19347;SDS011;9810;52.480;9.806;2024-01-16T05:56:54;2.60;;;1.20;;
19347;SDS011;9810;52.480;9.806;2024-01-16T05:59:21;8.80;;;1.30;;
19347;SDS011;9810;52.480;9.806;2024-01-16T06:01:48;5.83;;;1.50;;
19347;SDS011;9810;52.480;9.806;2024-01-16T06:04:15;2.40;;;1.30;;
19347;SDS011;9810;52.480;9.806;2024-01-16T06:06:42;6.50;;;1.60;;
19347;SDS011;9810;52.480;9.806;2024-01-16T06:09:13;7.73;;;1.40;;
19347;SDS011;9810;52.480;9.806;2024-01-16T06:11:40;5.17;;;1.33;;
19347;SDS011;9810;52.480;9.806;2024-01-16T06:14:08;5.80;;;1.87;;
19347;SDS011;9810;52.480;9.806;2024-01-16T06:16:37;8.07;;;1.60;;
19347;SDS011;9810;52.480;9.806;2024-01-16T06:19:04;2.43;;;1.30;;
19347;SDS011;9810;52.480;9.806;2024-01-16T06:21:31;7.87;;;2.00;;
19347;SDS011;9810;52.480;9.806;2024-01-16T06:23:58;5.37;;;1.60;;
19347;SDS011;9810;52.480;9.806;2024-01-16T06:26:26;6.67;;;2.10;;
19347;SDS011;9810;52.480;9.806;2024-01-16T06:28:53;4.30;;;1.83;;
19347;SDS011;9810;52.480;9.806;2024-01-16T06:31:20;2.90;;;1.70;;
19347;SDS011;9810;52.480;9.806;2024-01-16T06:33:47;8.13;;;1.83;;
19347;SDS011;9810;52.480;9.806;2024-01-16T06:36:14;12.93;;;1.90;;
19347;SDS011;9810;52.480;9.806;2024-01-16T06:38:41;7.13;;;2.30;;
19347;SDS011;9810;52.480;9.806;2024-01-16T06:41:08;6.17;;;1.93;;
19347;SDS011;9810;52.480;9.806;2024-01-16T06:43:36;3.37;;;1.60;;
19347;SDS011;9810;52.480;9.806;2024-01-16T06:46:04;7.13;;;3.80;;
19347;SDS011;9810;52.480;9.806;2024-01-16T06:48:31;8.00;;;2.27;;
19347;SDS011;9810;52.480;9.806;2024-01-16T06:50:58;4.87;;;2.80;;
19347;SDS011;9810;52.480;9.806;2024-01-16T06:53:26;8.07;;;1.97;;
19347;SDS011;9810;52.480;9.806;2024-01-16T06:55:53;4.20;;;2.60;;
19347;SDS011;9810;52.480;9.806;2024-01-16T06:58:20;5.70;;;2.93;;
19347;SDS011;9810;52.480;9.806;2024-01-16T07:00:49;4.03;;;2.73;;
19347;SDS011;9810;52.480;9.806;2024-01-16T07:03:16;9.63;;;2.83;;
19347;SDS011;9810;52.480;9.806;2024-01-16T07:05:43;5.03;;;2.70;;
19347;SDS011;9810;52.480;9.806;2024-01-16T07:08:10;5.93;;;2.63;;
19347;SDS011;9810;52.480;9.806;2024-01-16T07:10:37;8.27;;;2.97;;
19347;SDS011;9810;52.480;9.806;2024-01-16T07:13:04;6.07;;;2.87;;
19347;SDS011;9810;52.480;9.806;2024-01-16T07:15:32;5.17;;;3.07;;
19347;SDS011;9810;52.480;9.806;2024-01-16T07:18:01;9.63;;;2.60;;
19347;SDS011;9810;52.480;9.806;2024-01-16T07:20:28;7.80;;;2.90;;
19347;SDS011;9810;52.480;9.806;2024-01-16T07:22:55;6.53;;;2.43;;
19347;SDS011;9810;52.480;9.806;2024-01-16T07:25:22;9.93;;;2.97;;
19347;SDS011;9810;52.480;9.806;2024-01-16T07:27:49;10.50;;;3.33;;
19347;SDS011;9810;52.480;9.806;2024-01-16T07:30:16;6.07;;;2.87;;
19347;SDS011;9810;52.480;9.806;2024-01-16T07:32:42;3.03;;;2.50;;
19347;SDS011;9810;52.480;9.806;2024-01-16T07:35:11;10.23;;;3.50;;
19347;SDS011;9810;52.480;9.806;2024-01-16T07:37:38;9.17;;;3.07;;
19347;SDS011;9810;52.480;9.806;2024-01-16T07:40:06;6.50;;;2.60;;
19347;SDS011;9810;52.480;9.806;2024-01-16T07:42:34;6.20;;;3.40;;
19347;SDS011;9810;52.480;9.806;2024-01-16T07:45:01;12.77;;;3.50;;
19347;SDS011;9810;52.480;9.806;2024-01-16T07:47:29;9.43;;;3.30;;
19347;SDS011;9810;52.480;9.806;2024-01-16T07:49:58;9.10;;;3.30;;
19347;SDS011;9810;52.480;9.806;2024-01-16T07:52:27;5.70;;;3.03;;
19347;SDS011;9810;52.480;9.806;2024-01-16T07:54:54;11.30;;;2.97;;
19347;SDS011;9810;52.480;9.806;2024-01-16T07:57:21;7.53;;;3.53;;
19347;SDS011;9810;52.480;9.806;2024-01-16T07:59:48;8.77;;;2.83;;
19347;SDS011;9810;52.480;9.806;2024-01-16T08:02:15;7.27;;;3.60;;
19347;SDS011;9810;52.480;9.806;2024-01-16T08:04:42;11.17;;;3.47;;
19347;SDS011;9810;52.480;9.806;2024-01-16T08:07:09;5.73;;;3.23;;
19347;SDS011;9810;52.480;9.806;2024-01-16T08:09:37;7.27;;;3.37;;
19347;SDS011;9810;52.480;9.806;2024-01-16T08:12:04;9.73;;;2.70;;
19347;SDS011;9810;52.480;9.806;2024-01-16T08:14:32;9.60;;;3.30;;
19347;SDS011;9810;52.480;9.806;2024-01-16T08:16:59;5.00;;;2.80;;
19347;SDS011;9810;52.480;9.806;2024-01-16T08:19:26;4.73;;;2.40;;
19347;SDS011;9810;52.480;9.806;2024-01-16T08:21:53;8.20;;;3.00;;
19347;SDS011;9810;52.480;9.806;2024-01-16T08:24:20;8.13;;;3.20;;
19347;SDS011;9810;52.480;9.806;2024-01-16T08:26:49;9.33;;;3.30;;
19347;SDS011;9810;52.480;9.806;2024-01-16T08:29:16;8.90;;;4.03;;
19347;SDS011;9810;52.480;9.806;2024-01-16T08:31:43;5.77;;;2.77;;
19347;SDS011;9810;52.480;9.806;2024-01-16T08:34:10;8.40;;;3.30;;
19347;SDS011;9810;52.480;9.806;2024-01-16T08:36:37;6.70;;;3.53;;
19347;SDS011;9810;52.480;9.806;2024-01-16T08:39:08;7.03;;;3.57;;
19347;SDS011;9810;52.480;9.806;2024-01-16T08:41:36;7.63;;;3.03;;
19347;SDS011;9810;52.480;9.806;2024-01-16T08:44:05;6.67;;;2.80;;
19347;SDS011;9810;52.480;9.806;2024-01-16T08:46:32;9.00;;;3.60;;
19347;SDS011;9810;52.480;9.806;2024-01-16T08:48:59;10.77;;;3.10;;
19347;SDS011;9810;52.480;9.806;2024-01-16T08:51:26;5.30;;;3.07;;
19347;SDS011;9810;52.480;9.806;2024-01-16T08:53:53;7.17;;;3.80;;
19347;SDS011;9810;52.480;9.806;2024-01-16T08:56:20;8.73;;;2.97;;
19347;SDS011;9810;52.480;9.806;2024-01-16T08:58:47;6.27;;;3.00;;
19347;SDS011;9810;52.480;9.806;2024-01-16T09:01:15;12.60;;;3.60;;
19347;SDS011;9810;52.480;9.806;2024-01-16T09:03:42;8.43;;;3.47;;
19347;SDS011;9810;52.480;9.806;2024-01-16T09:06:09;12.67;;;3.97;;
19347;SDS011;9810;52.480;9.806;2024-01-16T09:08:36;9.10;;;3.23;;
19347;SDS011;9810;52.480;9.806;2024-01-16T09:11:03;10.80;;;5.90;;
19347;SDS011;9810;52.480;9.806;2024-01-16T09:13:30;8.40;;;3.63;;
19347;SDS011;9810;52.480;9.806;2024-01-16T09:15:57;6.27;;;3.73;;
19347;SDS011;9810;52.480;9.806;2024-01-16T09:18:25;10.50;;;3.67;;
19347;SDS011;9810;52.480;9.806;2024-01-16T09:20:52;4.93;;;3.07;;
19347;SDS011;9810;52.480;9.806;2024-01-16T09:23:20;6.20;;;3.43;;
19347;SDS011;9810;52.480;9.806;2024-01-16T09:25:47;17.67;;;3.37;;
19347;SDS011;9810;52.480;9.806;2024-01-16T09:28:14;8.97;;;3.60;;
19347;SDS011;9810;52.480;9.806;2024-01-16T09:30:41;11.50;;;3.77;;
19347;SDS011;9810;52.480;9.806;2024-01-16T09:33:08;5.87;;;4.03;;
19347;SDS011;9810;52.480;9.806;2024-01-16T09:35:37;8.50;;;3.77;;
19347;SDS011;9810;52.480;9.806;2024-01-16T09:38:04;12.30;;;3.67;;
19347;SDS011;9810;52.480;9.806;2024-01-16T09:40:31;13.17;;;4.07;;
19347;SDS011;9810;52.480;9.806;2024-01-16T09:42:58;9.87;;;4.27;;
19347;SDS011;9810;52.480;9.806;2024-01-16T09:45:25;7.13;;;3.67;;
19347;SDS011;9810;52.480;9.806;2024-01-16T09:47:55;11.50;;;4.27;;
19347;SDS011;9810;52.480;9.806;2024-01-16T09:50:23;10.83;;;3.70;;
19347;SDS011;9810;52.480;9.806;2024-01-16T09:52:51;6.07;;;3.53;;
19347;SDS011;9810;52.480;9.806;2024-01-16T09:55:18;7.37;;;3.67;;
19347;SDS011;9810;52.480;9.806;2024-01-16T09:57:46;5.60;;;3.17;;
19347;SDS011;9810;52.480;9.806;2024-01-16T10:00:18;6.83;;;3.67;;
19347;SDS011;9810;52.480;9.806;2024-01-16T10:02:45;10.67;;;3.57;;
19347;SDS011;9810;52.480;9.806;2024-01-16T10:05:13;8.87;;;3.63;;
19347;SDS011;9810;52.480;9.806;2024-01-16T10:07:41;9.33;;;3.40;;
19347;SDS011;9810;52.480;9.806;2024-01-16T10:10:11;8.37;;;3.83;;
19347;SDS011;9810;52.480;9.806;2024-01-16T10:12:39;7.70;;;3.60;;
19347;SDS011;9810;52.480;9.806;2024-01-16T10:15:06;8.93;;;4.23;;
19347;SDS011;9810;52.480;9.806;2024-01-16T10:17:37;6.37;;;3.63;;
19347;SDS011;9810;52.480;9.806;2024-01-16T10:20:05;6.50;;;3.87;;
19347;SDS011;9810;52.480;9.806;2024-01-16T10:22:38;5.97;;;3.77;;
19347;SDS011;9810;52.480;9.806;2024-01-16T10:25:06;9.43;;;3.30;;
19347;SDS011;9810;52.480;9.806;2024-01-16T10:27:37;4.47;;;2.97;;
19347;SDS011;9810;52.480;9.806;2024-01-16T10:30:05;8.07;;;3.63;;
19347;SDS011;9810;52.480;9.806;2024-01-16T10:32:34;7.43;;;3.60;;
19347;SDS011;9810;52.480;9.806;2024-01-16T10:35:06;11.40;;;4.57;;
19347;SDS011;9810;52.480;9.806;2024-01-16T10:37:40;6.57;;;3.50;;
19347;SDS011;9810;52.480;9.806;2024-01-16T10:40:08;8.50;;;3.47;;
19347;SDS011;9810;52.480;9.806;2024-01-16T10:42:37;6.53;;;3.60;;
19347;SDS011;9810;52.480;9.806;2024-01-16T10:45:05;13.53;;;4.30;;
19347;SDS011;9810;52.480;9.806;2024-01-16T10:47:32;5.77;;;3.30;;
19347;SDS011;9810;52.480;9.806;2024-01-16T10:50:02;5.93;;;3.73;;
19347;SDS011;9810;52.480;9.806;2024-01-16T10:52:32;6.87;;;4.03;;
19347;SDS011;9810;52.480;9.806;2024-01-16T10:55:00;4.47;;;3.17;;
19347;SDS011;9810;52.480;9.806;2024-01-16T10:57:31;7.27;;;3.57;;
19347;SDS011;9810;52.480;9.806;2024-01-16T11:00:02;5.07;;;3.00;;
19347;SDS011;9810;52.480;9.806;2024-01-16T11:02:35;8.07;;;3.37;;
19347;SDS011;9810;52.480;9.806;2024-01-16T11:05:10;6.63;;;2.40;;
19347;SDS011;9810;52.480;9.806;2024-01-16T11:07:38;6.40;;;2.97;;
19347;SDS011;9810;52.480;9.806;2024-01-16T11:10:08;10.03;;;4.40;;
19347;SDS011;9810;52.480;9.806;2024-01-16T11:12:36;8.47;;;3.03;;
19347;SDS011;9810;52.480;9.806;2024-01-16T11:15:07;5.03;;;2.77;;
19347;SDS011;9810;52.480;9.806;2024-01-16T11:17:38;9.30;;;3.50;;
19347;SDS011;9810;52.480;9.806;2024-01-16T11:20:10;9.13;;;3.53;;
19347;SDS011;9810;52.480;9.806;2024-01-16T11:22:40;11.37;;;3.17;;
19347;SDS011;9810;52.480;9.806;2024-01-16T11:25:09;6.50;;;3.60;;
19347;SDS011;9810;52.480;9.806;2024-01-16T11:27:37;10.07;;;3.10;;
19347;SDS011;9810;52.480;9.806;2024-01-16T11:30:05;7.00;;;3.00;;
19347;SDS011;9810;52.480;9.806;2024-01-16T11:32:36;6.33;;;3.27;;
19347;SDS011;9810;52.480;9.806;2024-01-16T11:35:05;9.63;;;3.20;;
19347;SDS011;9810;52.480;9.806;2024-01-16T11:37:33;6.43;;;2.97;;
19347;SDS011;9810;52.480;9.806;2024-01-16T11:42:58;8.60;;;3.13;;
19347;SDS011;9810;52.480;9.806;2024-01-16T11:48:15;5.57;;;2.73;;
19347;SDS011;9810;52.480;9.806;2024-01-16T11:50:43;4.60;;;2.70;;
19347;SDS011;9810;52.480;9.806;2024-01-16T11:53:10;6.67;;;3.23;;
19347;SDS011;9810;52.480;9.806;2024-01-16T11:55:58;5.17;;;3.07;;
19347;SDS011;9810;52.480;9.806;2024-01-16T11:58:45;7.23;;;3.40;;
19347;SDS011;9810;52.480;9.806;2024-01-16T12:01:19;10.47;;;2.93;;
19347;SDS011;9810;52.480;9.806;2024-01-16T12:04:00;3.20;;;2.33;;
19347;SDS011;9810;52.480;9.806;2024-01-16T12:06:28;5.80;;;3.20;;
19347;SDS011;9810;52.480;9.806;2024-01-16T12:09:07;3.07;;;2.63;;
19347;SDS011;9810;52.480;9.806;2024-01-16T12:11:38;5.00;;;3.43;;
19347;SDS011;9810;52.480;9.806;2024-01-16T12:14:05;5.43;;;2.77;;
19347;SDS011;9810;52.480;9.806;2024-01-16T12:16:33;3.13;;;2.40;;
19347;SDS011;9810;52.480;9.806;2024-01-16T12:19:04;7.43;;;2.77;;
19347;SDS011;9810;52.480;9.806;2024-01-16T12:21:32;3.87;;;3.00;;
19347;SDS011;9810;52.480;9.806;2024-01-16T12:24:01;6.30;;;3.00;;
19347;SDS011;9810;52.480;9.806;2024-01-16T12:26:28;4.60;;;3.50;;
19347;SDS011;9810;52.480;9.806;2024-01-16T12:28:57;9.13;;;3.43;;
19347;SDS011;9810;52.480;9.806;2024-01-16T12:31:24;10.53;;;3.37;;
19347;SDS011;9810;52.480;9.806;2024-01-16T12:33:53;7.33;;;3.03;;
19347;SDS011;9810;52.480;9.806;2024-01-16T12:36:21;3.53;;;2.73;;
19347;SDS011;9810;52.480;9.806;2024-01-16T12:38:53;3.80;;;3.07;;
19347;SDS011;9810;52.480;9.806;2024-01-16T12:41:21;4.73;;;2.50;;
19347;SDS011;9810;52.480;9.806;2024-01-16T12:43:49;10.67;;;3.63;;
19347;SDS011;9810;52.480;9.806;2024-01-16T12:46:17;4.97;;;2.80;;
19347;SDS011;9810;52.480;9.806;2024-01-16T12:48:45;6.68;;;3.10;;
19347;SDS011;9810;52.480;9.806;2024-01-16T12:51:21;5.53;;;2.13;;
19347;SDS011;9810;52.480;9.806;2024-01-16T12:53:48;5.63;;;2.93;;
19347;SDS011;9810;52.480;9.806;2024-01-16T12:56:18;5.07;;;3.50;;
19347;SDS011;9810;52.480;9.806;2024-01-16T12:58:46;6.20;;;2.77;;
19347;SDS011;9810;52.480;9.806;2024-01-16T13:01:22;5.93;;;3.53;;
19347;SDS011;9810;52.480;9.806;2024-01-16T13:03:51;8.00;;;2.50;;
19347;SDS011;9810;52.480;9.806;2024-01-16T13:06:18;7.63;;;2.70;;
19347;SDS011;9810;52.480;9.806;2024-01-16T13:08:48;6.13;;;3.33;;
19347;SDS011;9810;52.480;9.806;2024-01-16T13:11:15;8.33;;;4.00;;
19347;SDS011;9810;52.480;9.806;2024-01-16T13:13:45;4.27;;;3.33;;
19347;SDS011;9810;52.480;9.806;2024-01-16T13:16:13;4.53;;;3.40;;
19347;SDS011;9810;52.480;9.806;2024-01-16T13:18:40;7.70;;;3.33;;
19347;SDS011;9810;52.480;9.806;2024-01-16T13:21:07;7.37;;;3.63;;
19347;SDS011;9810;52.480;9.806;2024-01-16T13:23:36;6.10;;;3.47;;
19347;SDS011;9810;52.480;9.806;2024-01-16T13:26:03;8.83;;;4.20;;
19347;SDS011;9810;52.480;9.806;2024-01-16T13:28:32;9.87;;;4.70;;
19347;SDS011;9810;52.480;9.806;2024-01-16T13:30:59;9.60;;;4.50;;
19347;SDS011;9810;52.480;9.806;2024-01-16T13:33:26;9.30;;;3.60;;
19347;SDS011;9810;52.480;9.806;2024-01-16T13:35:53;9.23;;;3.80;;
19347;SDS011;9810;52.480;9.806;2024-01-16T13:38:20;9.07;;;4.70;;
19347;SDS011;9810;52.480;9.806;2024-01-16T13:40:49;10.23;;;4.17;;
19347;SDS011;9810;52.480;9.806;2024-01-16T13:43:16;10.57;;;4.53;;
19347;SDS011;9810;52.480;9.806;2024-01-16T13:45:43;9.70;;;4.73;;
19347;SDS011;9810;52.480;9.806;2024-01-16T13:48:14;8.40;;;5.23;;
19347;SDS011;9810;52.480;9.806;2024-01-16T13:50:42;7.00;;;4.10;;
19347;SDS011;9810;52.480;9.806;2024-01-16T13:53:10;11.93;;;5.23;;
19347;SDS011;9810;52.480;9.806;2024-01-16T13:55:39;8.07;;;4.47;;
19347;SDS011;9810;52.480;9.806;2024-01-16T13:58:07;8.43;;;4.70;;
19347;SDS011;9810;52.480;9.806;2024-01-16T14:00:35;10.37;;;4.97;;
19347;SDS011;9810;52.480;9.806;2024-01-16T14:03:02;7.67;;;4.07;;
19347;SDS011;9810;52.480;9.806;2024-01-16T14:05:31;6.83;;;4.30;;
19347;SDS011;9810;52.480;9.806;2024-01-16T14:07:58;9.43;;;5.10;;
19347;SDS011;9810;52.480;9.806;2024-01-16T14:10:25;14.57;;;5.53;;
19347;SDS011;9810;52.480;9.806;2024-01-16T14:12:52;12.93;;;6.10;;
19347;SDS011;9810;52.480;9.806;2024-01-16T14:15:21;12.97;;;6.47;;
19347;SDS011;9810;52.480;9.806;2024-01-16T14:17:49;14.57;;;5.53;;
19347;SDS011;9810;52.480;9.806;2024-01-16T14:20:17;7.53;;;5.80;;
19347;SDS011;9810;52.480;9.806;2024-01-16T14:22:48;11.70;;;6.37;;
19347;SDS011;9810;52.480;9.806;2024-01-16T14:25:16;9.43;;;5.57;;
19347;SDS011;9810;52.480;9.806;2024-01-16T14:27:45;10.03;;;5.17;;
19347;SDS011;9810;52.480;9.806;2024-01-16T14:30:15;8.20;;;5.87;;
19347;SDS011;9810;52.480;9.806;2024-01-16T14:32:45;13.37;;;6.63;;
19347;SDS011;9810;52.480;9.806;2024-01-16T14:35:12;9.80;;;5.83;;
19347;SDS011;9810;52.480;9.806;2024-01-16T14:37:42;11.50;;;6.00;;
19347;SDS011;9810;52.480;9.806;2024-01-16T14:40:10;14.33;;;5.50;;
19347;SDS011;9810;52.480;9.806;2024-01-16T14:42:41;9.67;;;5.90;;
19347;SDS011;9810;52.480;9.806;2024-01-16T14:45:09;11.53;;;5.63;;
19347;SDS011;9810;52.480;9.806;2024-01-16T14:47:37;7.50;;;5.30;;
19347;SDS011;9810;52.480;9.806;2024-01-16T14:50:07;14.03;;;6.80;;
19347;SDS011;9810;52.480;9.806;2024-01-16T14:52:35;10.10;;;5.83;;
19347;SDS011;9810;52.480;9.806;2024-01-16T14:55:04;12.77;;;6.47;;
19347;SDS011;9810;52.480;9.806;2024-01-16T14:57:33;9.50;;;4.83;;
19347;SDS011;9810;52.480;9.806;2024-01-16T15:00:07;12.37;;;5.53;;
19347;SDS011;9810;52.480;9.806;2024-01-16T15:02:39;10.00;;;5.50;;
19347;SDS011;9810;52.480;9.806;2024-01-16T15:05:08;9.00;;;4.80;;
19347;SDS011;9810;52.480;9.806;2024-01-16T15:07:37;10.30;;;5.13;;
19347;SDS011;9810;52.480;9.806;2024-01-16T15:10:06;12.00;;;6.17;;
19347;SDS011;9810;52.480;9.806;2024-01-16T15:12:36;12.00;;;7.20;;